CroatiaFixed distance
Istria 100 by UTMB - Green Course
6 Apr2024
Distance
69.2km
Finishers
511380 men131 women
Winning time
5:40:56h
Median pace
6.71km/h
Pace distribution
511 finishers · 4.34–12.18 km/h · mean 6.86
Every finisher ran the same 69.2 km course, so these paces are directly comparable.
Histogram of finisher pace. 511 finishers ranged from 4.34 to 12.18 kilometres per hour, with a mean of 6.86 and a median of 6.71. The busiest band is 6.0 to 6.5 kilometres per hour, with 102 finishers.
Results
Ranks 101–150 of 511
| Rank | Runner | Time | Pace | Cat. | Placing |
|---|---|---|---|---|---|
| 101 | SRD 315 Sjeverozapad | 8:52:00h | 7.80 | W23 | 20th F · 8th W23 |
| 102 | Manuel Iradier | 8:52:10h | 7.80 | W23 | 21st F · 9th W23 |
| 103 | 8:53:04h | 7.79 | W35 | 22nd F · 5th W35 | |
| 104 | Craft Czech Team | 8:54:13h | 7.77 | M40 | 82nd M · 13th M40 |
| 105 | 8:54:34h | 7.77 | M45 | 83rd M · 9th M45 | |
| 106 | AK Sljeme | 8:54:46h | 7.76 | W45 | 23rd F · 5th W45 |
| 107 | Fagiani Imprendibili | 8:56:23h | 7.74 | M35 | 84th M · 21st M35 |
| 107 | Fagiani Imprendibili | 8:56:23h | 7.74 | M50 | 84th M · 3rd M50 |
| 109 | Alis Transmontanus | 8:56:24h | 7.74 | M40 | 86th M · 14th M40 |
| 110 | 8:56:32h | 7.74 | M23 | 87th M · 40th M23 | |
| 111 | 8:56:46h | 7.74 | M23 | 88th M · 41st M23 | |
| 112 | Utrd | 8:57:29h | 7.72 | M23 | 89th M · 42nd M23 |
| 113 | 8:57:31h | 7.72 | M35 | 90th M · 22nd M35 | |
| 114 | 8:57:46h | 7.72 | M23 | 91st M · 43rd M23 | |
| 115 | 8:58:19h | 7.71 | M23 | 92nd M · 44th M23 | |
| 116 | Team Adventure Trieste | 8:59:54h | 7.69 | M23 | 93rd M · 45th M23 |
| 117 | Blackdog | 9:00:02h | 7.69 | M45 | 94th M · 10th M45 |
| 118 | 9:00:14h | 7.69 | M23 | 95th M · 46th M23 | |
| 119 | 9:00:41h | 7.68 | M40 | 96th M · 15th M40 | |
| 120 | 9:01:37h | 7.67 | W35 | 24th F · 6th W35 | |
| 121 | Team Grmada | 9:03:05h | 7.64 | W55 | 25th F · 1st W55 |
| 122 | 9:03:38h | 7.64 | M35 | 97th M · 23rd M35 | |
| 123 | Beta Running | 9:03:53h | 7.63 | M45 | 98th M · 11th M45 |
| 123 | TIM NEO | 9:03:53h | 7.63 | M23 | 98th M · 47th M23 |
| 125 | Salomon | 9:03:55h | 7.63 | W23 | 26th F · 10th W23 |
| 126 | 9:04:25h | 7.63 | M40 | 100th M · 16th M40 | |
| 127 | Rudniški Risi | 9:04:45h | 7.62 | M35 | 101st M · 24th M35 |
| 128 | 9:05:20h | 7.61 | M35 | 102nd M · 25th M35 | |
| 129 | 9:07:01h | 7.59 | M23 | 103rd M · 48th M23 | |
| 130 | Egger Run | 9:07:02h | 7.59 | W35 | 27th F · 7th W35 |
| 131 | 9:07:25h | 7.58 | W23 | 28th F · 11th W23 | |
| 132 | AAD Slovan / Tek.SI | 9:07:31h | 7.58 | M45 | 104th M · 12th M45 |
| 133 | DRC Athens | 9:08:00h | 7.58 | M23 | 105th M · 49th M23 |
| 134 | Facerunners | 9:08:12h | 7.57 | W23 | 29th F · 12th W23 |
| 135 | 9:08:18h | 7.57 | M23 | 106th M · 50th M23 | |
| 136 | Humlfamily | 9:08:24h | 7.57 | M40 | 107th M · 17th M40 |
| 137 | Trail Xics Montseny | 9:09:28h | 7.56 | M55 | 108th M · 1st M55 |
| 138 | Maximvs Poreč | 9:09:32h | 7.56 | M45 | 109th M · 13th M45 |
| 139 | 9:11:03h | 7.54 | M23 | 110th M · 51st M23 | |
| 140 | SK Pomalu | 9:12:14h | 7.52 | M23 | 111th M · 52nd M23 |
| 141 | 9:12:49h | 7.51 | M35 | 112th M · 26th M35 | |
| 142 | Team Jizerky | 9:13:27h | 7.50 | W40 | 30th F · 4th W40 |
| 143 | Valdalpone | 9:14:36h | 7.49 | M45 | 113th M · 14th M45 |
| 144 | Kraji.Eu - HR-Cro.com | 9:18:20h | 7.44 | M45 | 114th M · 15th M45 |
| 145 | VK Zagreb | 9:20:48h | 7.40 | M40 | 115th M · 18th M40 |
| 146 | ASC Ulm/Neu-Ulm 011 e.V.. | 9:21:03h | 7.40 | M35 | 116th M · 27th M35 |
| 147 | 9:21:04h | 7.40 | M50 | 117th M · 4th M50 | |
| 148 | 9:21:27h | 7.39 | M23 | 118th M · 53rd M23 | |
| 149 | Jakusteam | 9:21:31h | 7.39 | W45 | 31st F · 6th W45 |
| 150 | Bayronman e.V.. | 9:21:47h | 7.39 | M45 | 119th M · 16th M45 |
- 101SRD 315 Sjeverozapad20th F · 8th W23Time8:52:00hPace7.80Cat.W23
- 102Manuel Iradier21st F · 9th W23Time8:52:10hPace7.80Cat.W23
- 10322nd F · 5th W35Time8:53:04hPace7.79Cat.W35
- 104Craft Czech Team82nd M · 13th M40Time8:54:13hPace7.77Cat.M40
- 10583rd M · 9th M45Time8:54:34hPace7.77Cat.M45
- 106AK Sljeme23rd F · 5th W45Time8:54:46hPace7.76Cat.W45
- 107Fagiani Imprendibili84th M · 21st M35Time8:56:23hPace7.74Cat.M35
- 107Fagiani Imprendibili84th M · 3rd M50Time8:56:23hPace7.74Cat.M50
- 109Alis Transmontanus86th M · 14th M40Time8:56:24hPace7.74Cat.M40
- 11087th M · 40th M23Time8:56:32hPace7.74Cat.M23
- 11188th M · 41st M23Time8:56:46hPace7.74Cat.M23
- 112Utrd89th M · 42nd M23Time8:57:29hPace7.72Cat.M23
- 11390th M · 22nd M35Time8:57:31hPace7.72Cat.M35
- 11491st M · 43rd M23Time8:57:46hPace7.72Cat.M23
- 11592nd M · 44th M23Time8:58:19hPace7.71Cat.M23
- 116Team Adventure Trieste93rd M · 45th M23Time8:59:54hPace7.69Cat.M23
- 117Blackdog94th M · 10th M45Time9:00:02hPace7.69Cat.M45
- 11895th M · 46th M23Time9:00:14hPace7.69Cat.M23
- 11996th M · 15th M40Time9:00:41hPace7.68Cat.M40
- 12024th F · 6th W35Time9:01:37hPace7.67Cat.W35
- 121Team Grmada25th F · 1st W55Time9:03:05hPace7.64Cat.W55
- 12297th M · 23rd M35Time9:03:38hPace7.64Cat.M35
- 123Beta Running98th M · 11th M45Time9:03:53hPace7.63Cat.M45
- 123TIM NEO98th M · 47th M23Time9:03:53hPace7.63Cat.M23
- 125Salomon26th F · 10th W23Time9:03:55hPace7.63Cat.W23
- 126100th M · 16th M40Time9:04:25hPace7.63Cat.M40
- 127Rudniški Risi101st M · 24th M35Time9:04:45hPace7.62Cat.M35
- 128102nd M · 25th M35Time9:05:20hPace7.61Cat.M35
- 129103rd M · 48th M23Time9:07:01hPace7.59Cat.M23
- 130Egger Run27th F · 7th W35Time9:07:02hPace7.59Cat.W35
- 13128th F · 11th W23Time9:07:25hPace7.58Cat.W23
- 132AAD Slovan / Tek.SI104th M · 12th M45Time9:07:31hPace7.58Cat.M45
- 133DRC Athens105th M · 49th M23Time9:08:00hPace7.58Cat.M23
- 134Facerunners29th F · 12th W23Time9:08:12hPace7.57Cat.W23
- 135106th M · 50th M23Time9:08:18hPace7.57Cat.M23
- 136Humlfamily107th M · 17th M40Time9:08:24hPace7.57Cat.M40
- 137Trail Xics Montseny108th M · 1st M55Time9:09:28hPace7.56Cat.M55
- 138Maximvs Poreč109th M · 13th M45Time9:09:32hPace7.56Cat.M45
- 139110th M · 51st M23Time9:11:03hPace7.54Cat.M23
- 140SK Pomalu111th M · 52nd M23Time9:12:14hPace7.52Cat.M23
- 141112th M · 26th M35Time9:12:49hPace7.51Cat.M35
- 142Team Jizerky30th F · 4th W40Time9:13:27hPace7.50Cat.W40
- 143Valdalpone113th M · 14th M45Time9:14:36hPace7.49Cat.M45
- 144Kraji.Eu - HR-Cro.com114th M · 15th M45Time9:18:20hPace7.44Cat.M45
- 145VK Zagreb115th M · 18th M40Time9:20:48hPace7.40Cat.M40
- 146ASC Ulm/Neu-Ulm 011 e.V..116th M · 27th M35Time9:21:03hPace7.40Cat.M35
- 147117th M · 4th M50Time9:21:04hPace7.40Cat.M50
- 148118th M · 53rd M23Time9:21:27hPace7.39Cat.M23
- 149Jakusteam31st F · 6th W45Time9:21:31hPace7.39Cat.W45
- 150Bayronman e.V..119th M · 16th M45Time9:21:47hPace7.39Cat.M45
Showing ranks 101–150 of 511